createdAt,value
2022-07-31T00:00:49.193Z,16.60
2022-07-31T00:03:17.458Z,16.53
2022-07-31T00:05:48.919Z,16.49
2022-07-31T00:08:19.343Z,16.46
2022-07-31T00:10:48.595Z,16.42
2022-07-31T00:13:16.935Z,16.43
2022-07-31T00:15:44.960Z,16.39
2022-07-31T00:18:13.001Z,16.36
2022-07-31T00:20:41.249Z,16.32
2022-07-31T00:23:11.822Z,16.29
2022-07-31T00:25:48.547Z,16.23
2022-07-31T00:28:16.590Z,16.22
2022-07-31T00:30:45.058Z,16.15
2022-07-31T00:33:13.196Z,16.11
2022-07-31T00:35:41.231Z,16.06
2022-07-31T00:38:27.107Z,16.06
2022-07-31T00:40:57.025Z,16.01
2022-07-31T00:43:27.448Z,16.00
2022-07-31T00:45:59.542Z,15.94
2022-07-31T00:48:29.119Z,15.95
2022-07-31T00:50:58.042Z,15.94
2022-07-31T00:53:26.374Z,15.90
2022-07-31T00:55:57.555Z,15.84
2022-07-31T00:58:26.123Z,15.79
2022-07-31T01:00:54.497Z,15.75
2022-07-31T01:03:22.593Z,15.77
2022-07-31T01:05:50.673Z,15.74
2022-07-31T01:08:18.889Z,15.70
2022-07-31T01:10:53.845Z,15.65
2022-07-31T01:13:32.076Z,15.61
2022-07-31T01:16:01.349Z,15.58
2022-07-31T01:18:32.375Z,15.54
2022-07-31T01:21:04.563Z,15.53
2022-07-31T01:23:50.182Z,15.50
2022-07-31T01:26:33.189Z,15.44
2022-07-31T01:29:09.884Z,15.42
2022-07-31T01:31:43.253Z,15.37
2022-07-31T01:34:15.876Z,15.36
2022-07-31T01:36:49.821Z,15.29
2022-07-31T01:39:19.747Z,15.30
2022-07-31T01:41:48.831Z,15.26
2022-07-31T01:44:20.282Z,15.22
2022-07-31T01:46:49.293Z,15.22
2022-07-31T01:49:19.082Z,15.19
2022-07-31T01:51:49.205Z,15.18
2022-07-31T01:54:19.639Z,15.13
2022-07-31T01:56:49.569Z,15.15
2022-07-31T01:59:22.835Z,15.12
2022-07-31T02:01:53.461Z,15.09
2022-07-31T02:04:22.287Z,15.05
2022-07-31T02:06:51.041Z,15.02
2022-07-31T02:09:20.968Z,14.99
2022-07-31T02:11:54.800Z,14.98
2022-07-31T02:14:26.413Z,14.96
2022-07-31T02:16:55.221Z,14.95
2022-07-31T02:19:23.909Z,14.96
2022-07-31T02:21:52.207Z,14.96
2022-07-31T02:24:20.605Z,14.92
2022-07-31T02:26:50.159Z,14.92
2022-07-31T02:29:20.368Z,14.92
2022-07-31T02:32:03.133Z,14.91
2022-07-31T02:34:33.194Z,14.88
2022-07-31T02:37:02.027Z,14.84
2022-07-31T02:39:31.492Z,14.81
2022-07-31T02:42:01.918Z,14.82
2022-07-31T02:44:34.720Z,14.79
2022-07-31T02:47:05.806Z,14.78
2022-07-31T02:49:34.429Z,14.74
2022-07-31T02:52:04.646Z,14.72
2022-07-31T02:54:34.783Z,14.69
2022-07-31T02:57:04.314Z,14.71
2022-07-31T02:59:33.158Z,14.67
2022-07-31T03:02:01.547Z,14.64
2022-07-31T03:04:31.153Z,14.63
2022-07-31T03:06:59.360Z,14.61
2022-07-31T03:09:27.815Z,14.61
2022-07-31T03:11:57.208Z,14.56
2022-07-31T03:14:33.490Z,14.53
2022-07-31T03:17:01.849Z,14.57
2022-07-31T03:19:32.299Z,14.58
2022-07-31T03:22:01.427Z,14.56
2022-07-31T03:24:30.091Z,14.57
2022-07-31T03:26:58.257Z,14.56
2022-07-31T03:29:36.100Z,14.51
2022-07-31T03:32:11.853Z,14.47
2022-07-31T03:34:41.400Z,14.44
2022-07-31T03:37:10.251Z,14.44
2022-07-31T03:39:38.399Z,14.51
2022-07-31T03:42:07.117Z,14.48
2022-07-31T03:44:42.000Z,14.54
2022-07-31T03:47:10.342Z,14.56
2022-07-31T03:49:39.372Z,14.61
2022-07-31T03:52:12.302Z,14.71
2022-07-31T03:54:41.128Z,14.79
2022-07-31T03:57:09.741Z,14.96
2022-07-31T03:59:40.722Z,15.16
2022-07-31T04:02:18.857Z,15.49
2022-07-31T04:04:47.892Z,15.82
2022-07-31T04:07:17.747Z,16.14
2022-07-31T04:09:46.305Z,16.46
2022-07-31T04:12:17.131Z,16.81
2022-07-31T04:14:47.402Z,17.18
2022-07-31T04:17:16.027Z,17.55
2022-07-31T04:19:44.102Z,17.94
2022-07-31T04:22:12.267Z,18.31
2022-07-31T04:24:41.760Z,18.76
2022-07-31T04:27:12.920Z,19.27
2022-07-31T04:29:41.789Z,19.74
2022-07-31T04:32:10.275Z,20.19
2022-07-31T04:34:38.877Z,20.60
2022-07-31T04:37:07.140Z,20.99
2022-07-31T04:39:37.100Z,21.47
2022-07-31T04:42:11.119Z,21.84
2022-07-31T04:44:39.600Z,22.24
2022-07-31T04:47:07.981Z,22.58
2022-07-31T04:49:36.411Z,22.95
2022-07-31T04:52:05.914Z,23.24
2022-07-31T04:54:34.801Z,23.60
2022-07-31T04:57:03.927Z,23.93
2022-07-31T04:59:59.781Z,24.22
2022-07-31T05:02:21.781Z,24.57
2022-07-31T05:04:54.339Z,24.86
2022-07-31T05:07:27.557Z,25.14
2022-07-31T05:09:58.702Z,25.35
2022-07-31T05:12:27.152Z,25.56
2022-07-31T05:14:56.532Z,25.67
2022-07-31T05:17:24.728Z,25.73
2022-07-31T05:19:54.059Z,25.89
2022-07-31T05:22:22.273Z,26.14
2022-07-31T05:24:50.275Z,26.30
2022-07-31T05:27:18.361Z,26.47
2022-07-31T05:29:46.704Z,26.68
2022-07-31T05:32:16.701Z,26.88
2022-07-31T05:34:45.583Z,27.00
2022-07-31T05:37:13.676Z,27.23
2022-07-31T05:39:41.895Z,27.48
2022-07-31T05:42:10.234Z,27.68
2022-07-31T05:44:38.613Z,27.82
2022-07-31T05:47:08.361Z,27.89
2022-07-31T05:49:37.810Z,27.99
2022-07-31T05:52:06.972Z,28.14
2022-07-31T05:54:36.233Z,28.15
2022-07-31T05:57:04.425Z,28.18
2022-07-31T05:59:33.090Z,28.42
2022-07-31T06:02:01.605Z,28.62
2022-07-31T06:04:30.324Z,28.69
2022-07-31T06:06:59.719Z,28.83
2022-07-31T06:09:27.922Z,29.07
2022-07-31T06:11:58.346Z,29.24
2022-07-31T06:14:26.536Z,29.57
2022-07-31T06:16:54.811Z,29.88
2022-07-31T06:19:24.554Z,30.09
2022-07-31T06:22:02.021Z,30.31
2022-07-31T06:24:32.102Z,30.58
2022-07-31T06:27:04.570Z,30.68
2022-07-31T06:29:41.767Z,30.79
2022-07-31T06:32:10.627Z,30.91
2022-07-31T06:34:39.367Z,31.06
2022-07-31T06:37:07.506Z,31.18
2022-07-31T06:39:54.832Z,31.33
2022-07-31T06:42:25.018Z,31.39
2022-07-31T06:44:53.562Z,31.49
2022-07-31T06:47:23.810Z,31.54
2022-07-31T06:49:52.580Z,31.59
2022-07-31T06:52:21.030Z,31.64
2022-07-31T06:54:50.873Z,31.72
2022-07-31T06:57:18.946Z,31.76
2022-07-31T06:59:46.973Z,31.53
2022-07-31T07:02:15.121Z,31.46
2022-07-31T07:05:05.940Z,31.35
2022-07-31T07:07:32.299Z,31.30
2022-07-31T07:10:01.695Z,31.27
2022-07-31T07:12:29.971Z,31.21
2022-07-31T07:14:58.083Z,31.03
2022-07-31T07:17:29.309Z,31.02
2022-07-31T07:19:58.782Z,30.99
2022-07-31T07:22:30.068Z,31.12
2022-07-31T07:25:01.923Z,31.21
2022-07-31T07:27:30.333Z,31.35
2022-07-31T07:30:00.389Z,31.37
2022-07-31T07:32:28.464Z,31.32
2022-07-31T07:34:59.876Z,31.05
2022-07-31T07:37:30.777Z,31.33
2022-07-31T07:40:10.915Z,31.83
2022-07-31T07:42:38.975Z,32.22
2022-07-31T07:45:08.914Z,32.44
2022-07-31T07:48:05.278Z,32.71
2022-07-31T07:50:29.050Z,33.02
2022-07-31T07:52:57.309Z,33.23
2022-07-31T07:55:27.549Z,33.50
2022-07-31T07:58:11.400Z,33.65
2022-07-31T08:00:41.018Z,33.85
2022-07-31T08:03:50.071Z,34.17
2022-07-31T08:05:57.436Z,34.32
2022-07-31T08:08:25.777Z,34.04
2022-07-31T08:10:55.187Z,33.55
2022-07-31T08:13:23.839Z,33.29
2022-07-31T08:15:52.342Z,33.42
2022-07-31T08:18:21.580Z,33.60
2022-07-31T08:20:56.491Z,33.84
2022-07-31T08:23:24.497Z,34.07
2022-07-31T08:25:52.707Z,34.25
2022-07-31T08:28:25.575Z,34.59
2022-07-31T08:30:54.090Z,34.72
2022-07-31T08:33:22.522Z,34.72
2022-07-31T08:35:51.035Z,34.36
2022-07-31T08:38:19.722Z,33.92
2022-07-31T08:40:48.073Z,33.78
2022-07-31T08:46:08.017Z,34.08
2022-07-31T08:48:40.740Z,33.95
2022-07-31T08:51:12.567Z,33.55
2022-07-31T08:53:40.892Z,33.36
2022-07-31T08:56:10.765Z,33.24
2022-07-31T08:58:39.785Z,33.36
2022-07-31T09:01:13.571Z,33.53
2022-07-31T09:03:41.975Z,33.58
2022-07-31T09:06:11.087Z,33.50
2022-07-31T09:08:39.525Z,33.65
2022-07-31T09:11:09.911Z,33.92
2022-07-31T09:13:38.229Z,34.15
2022-07-31T09:16:07.096Z,34.36
2022-07-31T09:18:38.235Z,34.58
2022-07-31T09:21:07.335Z,34.79
2022-07-31T09:23:45.333Z,34.97
2022-07-31T09:26:13.764Z,34.93
2022-07-31T09:28:43.503Z,35.03
2022-07-31T09:31:12.299Z,35.13
2022-07-31T09:33:46.054Z,35.00
2022-07-31T09:36:15.292Z,34.58
2022-07-31T09:38:44.735Z,34.45
2022-07-31T09:41:56.926Z,34.51
2022-07-31T09:44:10.146Z,34.60
2022-07-31T09:46:42.616Z,34.63
2022-07-31T09:49:12.340Z,34.79
2022-07-31T09:51:41.153Z,35.07
2022-07-31T09:54:10.233Z,35.08
2022-07-31T09:56:39.790Z,34.97
2022-07-31T09:59:08.867Z,35.11
2022-07-31T10:01:42.853Z,35.23
2022-07-31T10:04:13.071Z,35.27
2022-07-31T10:06:42.124Z,35.34
2022-07-31T10:09:12.989Z,35.33
2022-07-31T10:11:41.965Z,35.40
2022-07-31T10:14:14.446Z,35.23
2022-07-31T10:16:43.356Z,34.97
2022-07-31T10:19:14.076Z,35.11
2022-07-31T10:21:43.989Z,35.06
2022-07-31T10:24:13.493Z,35.26
2022-07-31T10:27:00.759Z,35.22
2022-07-31T10:29:32.895Z,35.55
2022-07-31T10:32:02.067Z,35.62
2022-07-31T10:34:32.250Z,35.65
2022-07-31T10:37:11.298Z,35.65
2022-07-31T10:39:45.894Z,35.64
2022-07-31T10:42:19.452Z,35.19
2022-07-31T10:44:52.222Z,34.83
2022-07-31T10:47:20.480Z,34.90
2022-07-31T10:49:50.570Z,35.04
2022-07-31T10:52:30.980Z,34.86
2022-07-31T10:55:01.643Z,34.15
2022-07-31T10:57:31.014Z,33.73
2022-07-31T11:00:11.814Z,33.33
2022-07-31T11:02:40.640Z,32.92
2022-07-31T11:05:13.271Z,32.34
2022-07-31T11:07:42.364Z,31.83
2022-07-31T11:10:15.196Z,31.53
2022-07-31T11:12:43.323Z,31.14
2022-07-31T11:15:22.530Z,31.25
2022-07-31T11:18:21.040Z,31.80
2022-07-31T11:20:41.688Z,32.22
2022-07-31T11:23:10.598Z,32.15
2022-07-31T11:25:40.163Z,31.90
2022-07-31T11:28:12.672Z,31.53
2022-07-31T11:30:55.800Z,31.23
2022-07-31T11:33:41.678Z,30.94
2022-07-31T11:36:15.059Z,30.78
2022-07-31T11:38:44.766Z,30.60
2022-07-31T11:41:15.429Z,30.41
2022-07-31T11:43:45.089Z,30.16
2022-07-31T11:46:13.643Z,29.94
2022-07-31T11:48:45.536Z,29.82
2022-07-31T11:51:19.844Z,29.75
2022-07-31T11:53:56.922Z,29.62
2022-07-31T11:56:27.536Z,29.42
2022-07-31T11:58:59.242Z,29.22
2022-07-31T12:01:30.514Z,29.13
2022-07-31T12:04:08.523Z,29.08
2022-07-31T12:06:39.673Z,29.14
2022-07-31T12:10:02.385Z,29.52
2022-07-31T12:11:58.997Z,30.20
2022-07-31T12:14:31.467Z,30.85
2022-07-31T12:17:02.773Z,31.19
2022-07-31T12:19:37.421Z,31.29
2022-07-31T12:22:15.733Z,31.21
2022-07-31T12:24:44.167Z,30.98
2022-07-31T12:27:16.521Z,30.77
2022-07-31T12:29:45.239Z,30.55
2022-07-31T12:32:14.399Z,30.43
2022-07-31T12:34:43.966Z,30.23
2022-07-31T12:37:13.492Z,30.13
2022-07-31T12:40:00.395Z,30.27
2022-07-31T12:42:33.262Z,30.27
2022-07-31T12:45:19.126Z,30.24
2022-07-31T12:47:52.169Z,30.23
2022-07-31T12:50:22.729Z,30.21
2022-07-31T12:52:51.123Z,30.16
2022-07-31T12:55:22.721Z,30.19
2022-07-31T12:57:52.237Z,30.26
2022-07-31T13:00:22.902Z,30.28
2022-07-31T13:02:53.335Z,30.28
2022-07-31T13:05:22.181Z,30.26
2022-07-31T13:07:50.575Z,30.19
2022-07-31T13:10:23.661Z,29.97
2022-07-31T13:12:53.575Z,29.86
2022-07-31T13:15:31.928Z,29.85
2022-07-31T13:18:04.023Z,29.90
2022-07-31T13:20:32.781Z,29.96
2022-07-31T13:23:02.490Z,29.96
2022-07-31T13:25:32.164Z,29.90
2022-07-31T13:28:00.653Z,29.80
2022-07-31T13:30:29.217Z,29.75
2022-07-31T13:32:58.775Z,29.62
2022-07-31T13:35:29.072Z,29.43
2022-07-31T13:37:58.261Z,29.28
2022-07-31T13:40:40.721Z,29.10
2022-07-31T13:43:10.372Z,28.93
2022-07-31T13:45:38.615Z,28.82
2022-07-31T13:48:09.582Z,28.74
2022-07-31T13:50:39.974Z,28.82
2022-07-31T13:53:08.309Z,28.82
2022-07-31T13:55:36.772Z,28.88
2022-07-31T13:58:05.159Z,28.86
2022-07-31T14:00:34.596Z,28.84
2022-07-31T14:03:02.579Z,28.72
2022-07-31T14:05:37.308Z,28.59
2022-07-31T14:08:30.243Z,28.50
2022-07-31T14:10:58.868Z,28.46
2022-07-31T14:13:27.130Z,28.35
2022-07-31T14:16:00.398Z,28.29
2022-07-31T14:18:28.511Z,28.21
2022-07-31T14:20:56.899Z,28.18
2022-07-31T14:23:34.117Z,28.18
2022-07-31T14:26:05.116Z,28.15
2022-07-31T14:28:33.572Z,28.15
2022-07-31T14:31:06.810Z,28.14
2022-07-31T14:33:35.072Z,28.15
2022-07-31T14:36:03.854Z,28.19
2022-07-31T14:38:34.389Z,28.16
2022-07-31T14:41:06.018Z,28.12
2022-07-31T14:43:34.617Z,28.09
2022-07-31T14:46:04.108Z,28.06
2022-07-31T14:48:32.140Z,28.05
2022-07-31T14:51:03.044Z,28.11
2022-07-31T14:53:33.233Z,28.15
2022-07-31T14:56:03.705Z,28.24
2022-07-31T14:58:32.508Z,28.21
2022-07-31T15:01:21.847Z,28.19
2022-07-31T15:03:52.692Z,28.25
2022-07-31T15:06:39.799Z,28.33
2022-07-31T15:09:09.600Z,28.39
2022-07-31T15:12:00.886Z,28.40
2022-07-31T15:14:25.904Z,28.40
2022-07-31T15:16:56.547Z,28.36
2022-07-31T15:19:24.705Z,28.37
2022-07-31T15:22:10.778Z,28.40
2022-07-31T15:24:45.517Z,28.42
2022-07-31T15:27:18.565Z,28.39
2022-07-31T15:30:03.516Z,28.37
2022-07-31T15:32:36.188Z,28.36
2022-07-31T15:35:05.538Z,28.33
2022-07-31T15:37:37.911Z,28.22
2022-07-31T15:40:08.052Z,28.15
2022-07-31T15:42:40.166Z,28.12
2022-07-31T15:45:10.705Z,28.09
2022-07-31T15:47:41.523Z,28.06
2022-07-31T15:50:11.125Z,28.02
2022-07-31T15:52:39.999Z,28.02
2022-07-31T15:55:09.513Z,27.98
2022-07-31T15:57:37.692Z,27.98
2022-07-31T16:00:07.824Z,27.95
2022-07-31T16:02:37.475Z,27.91
2022-07-31T16:05:11.599Z,27.85
2022-07-31T16:08:29.260Z,27.82
2022-07-31T16:10:38.327Z,27.80
2022-07-31T16:13:07.357Z,27.76
2022-07-31T16:15:37.078Z,27.78
2022-07-31T16:18:07.340Z,27.80
2022-07-31T16:20:47.954Z,27.84
2022-07-31T16:23:16.242Z,27.94
2022-07-31T16:25:44.818Z,27.98
2022-07-31T16:28:13.125Z,28.05
2022-07-31T16:30:42.383Z,28.08
2022-07-31T16:33:11.033Z,28.09
2022-07-31T16:35:39.603Z,28.06
2022-07-31T16:38:10.280Z,28.02
2022-07-31T16:40:38.627Z,27.95
2022-07-31T16:43:47.277Z,27.84
2022-07-31T16:45:56.855Z,27.78
2022-07-31T16:48:28.330Z,27.74
2022-07-31T16:50:56.394Z,27.68
2022-07-31T16:54:12.939Z,27.58
2022-07-31T16:56:15.897Z,27.53
2022-07-31T16:58:44.858Z,27.46
2022-07-31T17:01:59.144Z,27.39
2022-07-31T17:04:04.035Z,27.34
2022-07-31T17:06:37.221Z,27.33
2022-07-31T17:09:17.509Z,27.34
2022-07-31T17:11:47.971Z,27.34
2022-07-31T17:14:17.751Z,27.39
2022-07-31T17:16:48.358Z,27.36
2022-07-31T17:19:41.813Z,27.34
2022-07-31T17:22:08.266Z,27.24
2022-07-31T17:24:41.606Z,27.20
2022-07-31T17:27:10.331Z,27.15
2022-07-31T17:29:39.560Z,27.12
2022-07-31T17:32:07.903Z,27.09
2022-07-31T17:34:39.937Z,27.04
2022-07-31T17:37:09.284Z,27.02
2022-07-31T17:39:39.330Z,26.96
2022-07-31T17:42:09.668Z,26.95
2022-07-31T17:44:41.053Z,26.93
2022-07-31T17:47:15.174Z,26.89
2022-07-31T17:49:43.582Z,26.89
2022-07-31T17:52:12.303Z,26.85
2022-07-31T17:54:40.885Z,26.83
2022-07-31T17:57:10.573Z,26.76
2022-07-31T17:59:38.671Z,26.71
2022-07-31T18:02:07.288Z,26.69
2022-07-31T18:04:37.734Z,26.64
2022-07-31T18:07:07.809Z,26.60
2022-07-31T18:09:36.768Z,26.51
2022-07-31T18:12:09.048Z,26.45
2022-07-31T18:14:45.307Z,26.35
2022-07-31T18:17:15.979Z,26.30
2022-07-31T18:19:44.312Z,26.23
2022-07-31T18:22:14.298Z,26.17
2022-07-31T18:24:43.831Z,26.12
2022-07-31T18:27:12.578Z,26.07
2022-07-31T18:29:42.479Z,26.00
2022-07-31T18:32:30.930Z,25.94
2022-07-31T18:34:59.848Z,25.86
2022-07-31T18:37:29.224Z,25.82
2022-07-31T18:39:58.952Z,25.73
2022-07-31T18:42:31.523Z,25.70
2022-07-31T18:45:02.105Z,25.63
2022-07-31T18:47:31.152Z,25.59
2022-07-31T18:50:59.786Z,25.52
2022-07-31T18:52:47.716Z,25.46
2022-07-31T18:55:15.855Z,25.42
2022-07-31T18:57:44.356Z,25.36
2022-07-31T19:00:15.183Z,25.34
2022-07-31T19:02:45.164Z,25.26
2022-07-31T19:05:21.510Z,25.25
2022-07-31T19:07:51.087Z,25.18
2022-07-31T19:10:29.229Z,25.18
2022-07-31T19:13:01.244Z,25.10
2022-07-31T19:15:33.104Z,25.08
2022-07-31T19:18:01.934Z,24.99
2022-07-31T19:20:51.741Z,24.84
2022-07-31T19:23:20.453Z,24.80
2022-07-31T19:26:02.232Z,24.77
2022-07-31T19:28:37.614Z,24.76
2022-07-31T19:31:07.342Z,24.76
2022-07-31T19:33:35.557Z,24.74
2022-07-31T19:36:03.830Z,24.70
2022-07-31T19:38:33.316Z,24.67
2022-07-31T19:41:03.063Z,24.67
2022-07-31T19:43:33.406Z,24.64
2022-07-31T19:46:11.728Z,24.59
2022-07-31T19:48:44.375Z,24.56
2022-07-31T19:51:14.577Z,24.51
2022-07-31T19:53:43.033Z,24.49
2022-07-31T19:56:15.646Z,24.46
2022-07-31T19:58:48.409Z,24.41
2022-07-31T20:01:20.217Z,24.36
2022-07-31T20:03:50.206Z,24.33
2022-07-31T20:06:19.585Z,24.32
2022-07-31T20:08:49.103Z,24.33
2022-07-31T20:11:18.228Z,24.33
2022-07-31T20:13:49.771Z,24.35
2022-07-31T20:16:18.066Z,24.35
2022-07-31T20:18:47.231Z,24.36
2022-07-31T20:21:18.263Z,24.35
2022-07-31T20:23:48.887Z,24.30
2022-07-31T20:26:17.641Z,24.28
2022-07-31T20:28:46.136Z,24.25
2022-07-31T20:31:16.020Z,24.25
2022-07-31T20:33:57.223Z,24.25
2022-07-31T20:36:28.208Z,24.20
2022-07-31T20:38:59.099Z,24.20
2022-07-31T20:41:28.200Z,24.15
2022-07-31T20:43:56.204Z,24.13
2022-07-31T20:46:25.260Z,24.12
2022-07-31T20:48:53.565Z,24.10
2022-07-31T20:51:23.364Z,24.09
2022-07-31T20:53:56.954Z,24.05
2022-07-31T20:56:25.630Z,24.02
2022-07-31T20:58:58.346Z,24.01
2022-07-31T21:01:26.868Z,23.99
2022-07-31T21:03:56.225Z,23.98
2022-07-31T21:06:25.342Z,23.95
2022-07-31T21:08:54.984Z,23.96
2022-07-31T21:11:31.724Z,23.95
2022-07-31T21:14:02.822Z,23.92
2022-07-31T21:16:36.120Z,23.92
2022-07-31T21:19:04.340Z,23.86
2022-07-31T21:21:32.837Z,23.84
2022-07-31T21:24:04.200Z,23.77
2022-07-31T21:26:33.160Z,23.65
2022-07-31T21:29:02.825Z,23.55
2022-07-31T21:31:32.547Z,23.51
2022-07-31T21:34:01.139Z,23.61
2022-07-31T21:36:29.748Z,23.70
2022-07-31T21:38:58.382Z,23.77
2022-07-31T21:41:28.635Z,23.77
2022-07-31T21:43:59.599Z,23.78
2022-07-31T21:46:29.276Z,23.68
2022-07-31T21:48:58.297Z,23.54
2022-07-31T21:51:27.428Z,23.43
2022-07-31T21:53:55.850Z,23.27
2022-07-31T21:56:24.509Z,23.17
2022-07-31T21:58:54.146Z,23.07
2022-07-31T22:01:22.375Z,23.00
2022-07-31T22:03:50.899Z,23.02
2022-07-31T22:06:45.190Z,22.99
2022-07-31T22:09:13.455Z,22.96
2022-07-31T22:12:01.360Z,22.97
2022-07-31T22:14:32.431Z,22.97
2022-07-31T22:17:00.524Z,22.92
2022-07-31T22:19:29.334Z,22.83
2022-07-31T22:21:59.650Z,22.79
2022-07-31T22:24:28.259Z,22.73
2022-07-31T22:27:16.765Z,22.68
2022-07-31T22:29:47.188Z,22.62
2022-07-31T22:32:18.002Z,22.56
2022-07-31T22:34:46.693Z,22.51
2022-07-31T22:37:15.611Z,22.48
2022-07-31T22:39:43.865Z,22.44
2022-07-31T22:42:12.451Z,22.39
2022-07-31T22:44:41.042Z,22.35
2022-07-31T22:47:10.879Z,22.29
2022-07-31T22:49:39.491Z,22.28
2022-07-31T22:52:08.300Z,22.25
2022-07-31T22:54:36.381Z,22.20
2022-07-31T22:57:04.899Z,22.13
2022-07-31T22:59:33.532Z,22.07
2022-07-31T23:02:04.357Z,22.01
2022-07-31T23:04:34.471Z,21.94
2022-07-31T23:07:03.017Z,21.87
2022-07-31T23:09:31.660Z,21.83
2022-07-31T23:12:00.402Z,21.74
2022-07-31T23:14:30.060Z,21.66
2022-07-31T23:16:58.510Z,21.58
2022-07-31T23:19:27.060Z,21.50
2022-07-31T23:21:56.427Z,21.47
2022-07-31T23:24:24.635Z,21.42
2022-07-31T23:26:52.811Z,21.35
2022-07-31T23:29:21.256Z,21.28
2022-07-31T23:31:49.773Z,21.22
2022-07-31T23:34:18.239Z,21.18
2022-07-31T23:36:46.667Z,21.16
2022-07-31T23:39:18.580Z,21.11
2022-07-31T23:42:04.737Z,21.05
2022-07-31T23:44:32.990Z,21.02
2022-07-31T23:47:08.826Z,20.99
2022-07-31T23:49:37.306Z,20.96
2022-07-31T23:52:07.061Z,20.92
2022-07-31T23:54:36.941Z,20.87
2022-07-31T23:57:07.821Z,20.85
2022-07-31T23:59:36.252Z,20.85
